Time;durP1;ratioP1;P1;durP2;ratioP2;P2;SDS_P1;SDS_P2;PMS_P1;PMS_P2;Temp;Humidity;BMP_temperature;BMP_pressure;BME280_temperature;BME280_humidity;BME280_pressure;Samples;Min_cycle;Max_cycle;Signal;HPM_P1;HPM_P2
2020/12/31 00:00:11;;;;;;;0.70;0.50;;;3.70;99.90;;;3.68;99.24;100202.59;6175429;23;20036;-92
2020/12/31 00:02:37;;;;;;;1.35;0.50;;;4.30;99.90;;;3.64;99.05;100206.63;6174690;23;20059;-92
2020/12/31 00:05:04;;;;;;;1.33;0.60;;;3.60;99.90;;;3.65;99.40;100208.31;6175759;23;20016;-92
2020/12/31 00:07:30;;;;;;;1.25;1.02;;;4.00;99.90;;;3.66;99.81;100207.28;6174716;23;20008;-91
2020/12/31 00:09:56;;;;;;;0.77;0.50;;;3.80;99.90;;;3.69;100.00;100212.34;6198036;23;20062;-88
2020/12/31 00:12:22;;;;;;;0.68;0.50;;;4.20;99.90;;;3.72;99.55;100203.94;6169911;23;20017;-89
2020/12/31 00:14:51;;;;;;;3.97;0.82;;;3.90;99.90;;;3.61;100.00;100206.97;6147543;23;20009;-88
2020/12/31 00:17:24;;;;;;;3.20;0.65;;;4.00;99.90;;;3.62;100.00;100209.47;6172650;23;20009;-88
2020/12/31 00:19:50;;;;;;;0.35;0.35;;;3.90;99.90;;;3.58;100.00;100208.16;6149172;23;20005;-88
2020/12/31 00:22:16;;;;;;;0.80;0.50;;;3.70;99.90;;;3.41;100.00;100202.97;6172768;23;20028;-89
2020/12/31 00:24:42;;;;;;;0.47;0.40;;;3.80;99.90;;;3.38;100.00;100216.78;6146995;23;20008;-88
2020/12/31 00:27:08;;;;;;;0.65;0.50;;;3.90;99.90;;;3.29;100.00;100210.53;6169238;23;20039;-89
2020/12/31 00:29:34;;;;;;;0.95;0.40;;;4.00;99.90;;;3.35;100.00;100209.03;6170449;23;20005;-90
2020/12/31 00:32:00;;;;;;;1.30;0.60;;;3.70;99.90;;;3.36;100.00;100205.34;6170404;23;20433;-89
2020/12/31 00:34:26;;;;;;;2.85;0.63;;;4.10;99.90;;;3.36;100.00;100202.63;6146266;23;20051;-89
2020/12/31 00:36:52;;;;;;;0.40;0.30;;;3.70;99.90;;;3.30;100.00;100206.84;6172471;23;20000;-92
2020/12/31 00:39:18;;;;;;;0.45;0.40;;;3.80;99.90;;;3.41;100.00;100211.03;6148972;23;20008;-92
2020/12/31 00:41:44;;;;;;;0.75;0.40;;;3.70;99.90;;;3.45;100.00;100201.63;6173365;23;20011;-92
2020/12/31 00:44:10;;;;;;;0.50;0.35;;;3.80;99.90;;;3.44;100.00;100199.94;6171531;23;20054;-91
2020/12/31 00:46:36;;;;;;;1.75;0.52;;;4.00;99.90;;;3.36;100.00;100213.41;6173955;23;20013;-90
2020/12/31 00:49:03;;;;;;;2.45;0.47;;;4.00;99.90;;;3.40;100.00;100203.97;6176549;23;20016;-91
2020/12/31 00:51:29;;;;;;;0.40;0.40;;;3.70;99.90;;;3.38;100.00;100198.78;6181260;23;20015;-92
2020/12/31 00:53:57;;;;;;;0.93;0.40;;;3.70;99.90;;;3.35;100.00;100211.72;6192324;23;20074;-91
2020/12/31 00:56:23;;;;;;;2.67;0.73;;;3.90;99.90;;;3.39;100.00;100213.88;6168969;23;20012;-92
2020/12/31 00:59:09;;;;;;;1.98;0.50;;;3.80;99.90;;;3.41;100.00;100213.72;6192315;23;20040;-91
2020/12/31 01:01:36;;;;;;;0.45;0.45;;;3.90;99.90;;;3.62;100.00;100214.00;6192413;23;19997;-91
2020/12/31 01:04:02;;;;;;;0.40;0.40;;;3.80;99.90;;;3.70;100.00;100210.50;6186506;23;20012;-90
2020/12/31 01:06:39;;;;;;;1.58;1.23;;;4.40;99.90;;;3.77;100.00;100215.00;6189639;23;20024;-90
2020/12/31 01:09:09;;;;;;;0.93;0.88;;;4.10;99.90;;;3.82;100.00;100209.97;6199571;23;20055;-92
2020/12/31 01:11:39;;;;;;;0.80;0.70;;;4.40;99.90;;;3.83;100.00;100211.63;6173460;23;20016;-90
2020/12/31 01:14:09;;;;;;;1.88;0.80;;;3.60;99.90;;;3.77;100.00;100211.47;6203847;23;20043;-90
2020/12/31 01:16:38;;;;;;;3.55;1.30;;;4.00;99.90;;;3.72;100.00;100213.84;6200872;23;20028;-92
2020/12/31 01:19:04;;;;;;;2.88;1.05;;;4.20;99.90;;;3.73;100.00;100213.66;6199699;23;20005;-91
2020/12/31 01:21:30;;;;;;;1.20;0.80;;;4.10;99.90;;;3.79;100.00;100215.69;6202036;23;20307;-91
2020/12/31 01:23:56;;;;;;;1.95;1.30;;;4.70;99.90;;;3.85;100.00;100209.59;6200072;23;20013;-91
2020/12/31 01:26:33;;;;;;;2.38;1.33;;;4.80;99.90;;;3.85;100.00;100209.59;6224138;23;20009;-91
2020/12/31 01:29:03;;;;;;;2.20;1.38;;;4.30;99.90;;;3.94;100.00;100207.72;6199150;23;20013;-91
2020/12/31 01:31:29;;;;;;;1.90;1.50;;;4.10;99.90;;;3.84;100.00;100207.91;6197297;23;20011;-88
2020/12/31 01:33:56;;;;;;;1.52;1.40;;;4.10;99.90;;;3.74;100.00;100207.25;6168604;23;20012;-88
2020/12/31 01:36:22;;;;;;;2.22;1.35;;;4.00;99.90;;;3.83;100.00;100206.25;6194682;23;20425;-89
2020/12/31 01:38:48;;;;;;;2.15;1.90;;;4.00;99.90;;;3.77;100.00;100206.94;6200144;23;20428;-92
2020/12/31 01:41:21;;;;;;;2.30;1.77;;;4.10;99.90;;;3.79;100.00;100204.91;6223390;23;20004;-92
2020/12/31 01:44:07;;;;;;;5.75;1.80;;;4.00;99.90;;;3.78;100.00;100192.47;6200237;23;20433;-90
2020/12/31 01:46:36;;;;;;;2.28;1.20;;;4.00;99.90;;;3.85;100.00;100198.81;6200771;23;20030;-92
2020/12/31 01:49:05;;;;;;;1.75;1.65;;;4.10;99.90;;;3.87;100.00;100210.25;6227500;23;20019;-91
2020/12/31 01:51:34;;;;;;;4.30;1.60;;;4.10;99.90;;;3.73;100.00;100205.59;6210614;23;20496;-91
2020/12/31 01:54:04;;;;;;;1.65;1.30;;;4.00;99.90;;;3.72;100.00;100203.94;6241379;23;20012;-88
2020/12/31 01:56:35;;;;;;;2.63;1.73;;;4.40;99.90;;;3.78;100.00;100208.59;6177019;23;20017;-91
2020/12/31 01:59:04;;;;;;;1.58;1.48;;;4.10;99.90;;;3.80;100.00;100193.13;6182149;23;20020;-90
2020/12/31 02:01:30;;;;;;;1.77;1.67;;;4.10;99.90;;;3.73;100.00;100205.59;6194467;23;20004;-92
2020/12/31 02:03:58;;;;;;;1.60;1.27;;;4.90;99.90;;;3.80;100.00;100203.91;6194678;23;20009;-91
2020/12/31 02:06:27;;;;;;;2.03;1.27;;;4.10;99.90;;;3.74;100.00;100207.25;6169544;23;20021;-91
2020/12/31 02:08:56;;;;;;;1.85;1.48;;;4.10;99.90;;;3.66;100.00;100201.91;6191148;23;20012;-92
2020/12/31 02:11:25;;;;;;;1.88;1.60;;;4.10;99.90;;;3.73;100.00;100204.75;6178308;23;20044;-91
2020/12/31 02:13:54;;;;;;;3.42;1.63;;;4.10;99.90;;;3.73;100.00;100194.81;6200828;23;20015;-91
2020/12/31 02:16:29;;;;;;;4.80;1.58;;;4.10;99.90;;;3.68;100.00;100197.19;6222649;23;20012;-90
2020/12/31 02:19:07;;;;;;;3.83;1.75;;;4.10;99.90;;;3.72;100.00;100198.56;6173774;23;20012;-91
2020/12/31 02:21:45;;;;;;;2.67;2.15;;;4.10;99.90;;;3.71;100.00;100202.25;6199390;23;20433;-90
2020/12/31 02:24:11;;;;;;;3.72;2.38;;;4.10;99.90;;;3.68;100.00;100197.19;6198773;23;20009;-90
2020/12/31 02:26:39;;;;;;;2.58;2.08;;;4.10;99.90;;;3.73;100.00;100193.97;6171567;23;20100;-91
2020/12/31 02:29:09;;;;;;;5.75;3.35;;;4.20;99.90;;;3.70;100.00;100192.50;6197105;23;20008;-91
2020/12/31 02:31:35;;;;;;;4.18;3.00;;;4.10;99.90;;;3.71;100.00;100191.47;6199799;23;20023;-90
2020/12/31 02:34:03;;;;;;;4.47;2.85;;;4.10;99.90;;;3.73;100.00;100189.44;6199763;23;20019;-90
2020/12/31 02:36:33;;;;;;;3.35;2.90;;;5.10;99.90;;;3.65;100.00;100186.78;6221049;23;20032;-92
2020/12/31 02:39:06;;;;;;;4.45;2.67;;;4.50;99.90;;;3.66;100.00;100193.84;6197863;23;20000;-90
2020/12/31 02:41:32;;;;;;;4.28;2.78;;;4.00;99.90;;;3.69;100.00;100187.28;6222518;23;20011;-91
2020/12/31 02:43:58;;;;;;;5.03;2.05;;;4.00;99.90;;;3.62;100.00;100197.88;6197347;23;20016;-90
2020/12/31 02:46:24;;;;;;;2.13;1.92;;;3.80;99.90;;;3.60;100.00;100190.00;6197083;23;20040;-91
2020/12/31 02:48:52;;;;;;;3.03;2.10;;;4.40;99.90;;;3.60;100.00;100190.00;6172293;23;20009;-89
2020/12/31 02:51:19;;;;;;;5.88;1.80;;;4.00;99.90;;;3.49;100.00;100187.66;6196474;23;20012;-89
2020/12/31 02:53:45;;;;;;;2.28;1.80;;;3.90;99.90;;;3.47;100.00;100178.91;6170382;23;20112;-89
2020/12/31 02:56:17;;;;;;;1.70;1.42;;;3.90;99.90;;;3.42;100.00;100177.75;6194242;23;20024;-89
2020/12/31 02:58:43;;;;;;;2.10;1.58;;;3.80;99.90;;;3.32;100.00;100174.41;6170134;23;20008;-88
2020/12/31 03:01:10;;;;;;;1.92;1.40;;;3.70;99.90;;;3.56;100.00;100172.50;6220105;23;20008;-89
2020/12/31 03:03:38;;;;;;;1.75;1.48;;;4.00;99.90;;;3.46;100.00;100171.84;6179103;23;20016;-89
2020/12/31 03:06:08;;;;;;;3.22;1.23;;;3.80;99.90;;;3.59;100.00;100176.72;6208303;23;20013;-89
2020/12/31 03:08:36;;;;;;;3.05;1.75;;;3.80;99.90;;;3.70;100.00;100162.03;6156579;23;20013;-89
2020/12/31 03:11:17;;;;;;;1.58;1.48;;;4.10;99.90;;;3.47;100.00;100167.31;6176242;23;20005;-88
2020/12/31 03:13:42;;;;;;;3.28;1.40;;;3.80;99.90;;;3.53;100.00;100167.47;6148102;23;20009;-90
2020/12/31 03:16:08;;;;;;;3.13;1.55;;;3.90;99.90;;;3.55;100.00;100172.66;6144241;23;20016;-90
2020/12/31 03:18:34;;;;;;;1.45;1.35;;;3.80;99.90;;;3.53;100.00;100172.00;6117738;23;20068;-92
2020/12/31 03:21:06;;;;;;;2.88;1.67;;;5.00;99.90;;;3.61;100.00;100180.88;6145283;23;20028;-90
2020/12/31 03:23:32;;;;;;;1.65;1.35;;;3.80;99.90;;;3.44;100.00;100173.88;6169198;23;20009;-91
2020/12/31 03:25:58;;;;;;;1.60;1.10;;;3.70;99.90;;;3.43;100.00;100171.34;6142208;23;20005;-92
2020/12/31 03:28:31;;;;;;;1.20;1.10;;;4.10;99.90;;;3.45;100.00;100174.72;6143160;23;20036;-92
2020/12/31 03:30:57;;;;;;;1.92;1.00;;;3.70;99.90;;;3.50;100.00;100177.75;6144611;23;20015;-91
2020/12/31 03:33:23;;;;;;;1.63;1.50;;;3.70;99.90;;;3.49;100.00;100176.91;6143992;23;20013;-91
2020/12/31 03:35:50;;;;;;;2.28;1.67;;;4.10;99.90;;;3.46;100.00;100165.63;6142377;23;20012;-91
2020/12/31 03:38:19;;;;;;;1.27;1.17;;;3.60;99.90;;;3.45;100.00;100170.19;6142743;23;20013;-92
2020/12/31 03:40:46;;;;;;;2.70;1.92;;;3.70;99.90;;;3.51;100.00;100169.47;6167252;23;20068;-91
2020/12/31 03:43:12;;;;;;;5.03;1.50;;;3.70;99.90;;;3.50;100.00;100173.19;6144849;23;20032;-91
2020/12/31 03:45:40;;;;;;;1.65;1.55;;;3.80;99.90;;;3.50;100.00;100166.97;6143351;23;20382;-92
2020/12/31 03:48:05;;;;;;;2.17;1.45;;;4.50;99.90;;;3.51;100.00;100168.63;6118883;23;20013;-91
2020/12/31 03:50:32;;;;;;;2.97;1.48;;;3.80;99.90;;;3.51;100.00;100164.09;6142589;23;20040;-88
2020/12/31 03:52:58;;;;;;;3.40;1.90;;;4.00;99.90;;;3.42;100.00;100164.28;6114941;23;20013;-89
2020/12/31 03:55:25;;;;;;;2.47;1.80;;;3.80;99.90;;;3.43;100.00;100161.44;6138817;23;20011;-88
2020/12/31 03:57:50;;;;;;;3.17;1.92;;;3.80;99.90;;;3.38;100.00;100157.59;6139111;23;20009;-88
2020/12/31 04:00:16;;;;;;;4.63;2.22;;;3.80;99.90;;;3.36;100.00;100154.22;6114300;23;20430;-89
2020/12/31 04:02:45;;;;;;;2.60;2.20;;;4.30;99.90;;;3.44;100.00;100148.81;6140261;23;20005;-89
2020/12/31 04:05:11;;;;;;;3.75;2.33;;;3.70;99.90;;;3.32;100.00;100155.56;6119641;23;20013;-89
2020/12/31 04:07:40;;;;;;;3.10;2.80;;;3.80;99.90;;;3.19;100.00;100148.03;6169507;23;20016;-89
2020/12/31 04:10:06;;;;;;;3.22;2.80;;;3.70;99.90;;;3.20;100.00;100145.16;6146460;23;20038;-91
2020/12/31 04:12:32;;;;;;;4.35;3.95;;;3.60;99.90;;;3.03;100.00;100142.69;6173203;23;20087;-92
2020/12/31 04:14:58;;;;;;;4.90;4.03;;;4.10;99.90;;;3.08;100.00;100148.38;6172603;23;20013;-93
2020/12/31 04:17:24;;;;;;;5.38;3.63;;;3.50;99.90;;;3.07;100.00;100147.53;6147312;23;20072;-92
2020/12/31 04:19:50;;;;;;;5.80;4.05;;;3.90;99.90;;;3.06;100.00;100143.16;6148447;23;20059;-92
2020/12/31 04:22:16;;;;;;;4.90;4.35;;;3.40;99.90;;;2.96;100.00;100142.50;6148509;23;20039;-92
2020/12/31 04:24:43;;;;;;;6.45;4.97;;;3.40;99.90;;;3.06;100.00;100136.94;6173637;23;20021;-91
2020/12/31 04:27:09;;;;;;;7.68;5.38;;;3.40;99.90;;;2.85;100.00;100137.47;6146970;23;20009;-91
2020/12/31 04:29:35;;;;;;;6.80;5.95;;;3.30;99.90;;;2.88;100.00;100134.44;6146631;23;20035;-91
2020/12/31 04:32:01;;;;;;;9.15;5.75;;;3.30;99.90;;;2.85;100.00;100129.41;6198967;23;20315;-92
2020/12/31 04:34:26;;;;;;;7.75;6.68;;;3.10;99.90;;;2.88;100.00;100129.91;6148536;23;20008;-92
2020/12/31 04:36:52;;;;;;;7.20;6.00;;;3.20;99.90;;;2.92;100.00;100136.63;6149268;23;20009;-93
2020/12/31 04:39:19;;;;;;;8.68;6.97;;;3.20;99.90;;;2.89;100.00;100130.75;6150825;23;20005;-92
2020/12/31 04:41:45;;;;;;;8.02;6.30;;;3.20;99.90;;;2.88;100.00;100137.97;6175205;23;20015;-92
2020/12/31 04:44:14;;;;;;;9.05;7.00;;;3.30;99.90;;;2.84;100.00;100130.41;6187989;23;20009;-91
2020/12/31 04:46:48;;;;;;;9.40;7.53;;;3.30;99.90;;;2.81;100.00;100133.44;6193520;23;20017;-91
2020/12/31 04:49:26;;;;;;;8.00;6.57;;;3.20;99.90;;;2.80;100.00;100127.22;6186723;23;20000;-92
2020/12/31 04:51:54;;;;;;;9.27;6.82;;;3.20;99.90;;;2.79;100.00;100124.72;6269690;23;20012;-91
2020/12/31 04:54:21;;;;;;;8.50;7.20;;;3.20;99.90;;;2.74;100.00;100132.41;6271718;22;20011;-90
2020/12/31 04:56:47;;;;;;;10.07;7.03;;;3.10;99.90;;;2.65;100.00;100125.38;6239765;22;20086;-91
2020/12/31 04:59:13;;;;;;;8.57;6.90;;;3.10;99.90;;;2.63;100.00;100127.38;6235492;23;20012;-91
2020/12/31 05:01:46;;;;;;;10.00;7.65;;;3.70;99.90;;;2.57;100.00;100136.13;6230682;23;20004;-91
2020/12/31 05:04:14;;;;;;;7.85;6.50;;;3.60;99.90;;;2.63;100.00;100135.44;6205810;23;20019;-90
2020/12/31 05:06:44;;;;;;;9.98;6.55;;;4.00;99.90;;;2.59;100.00;100136.78;6231894;23;20005;-91
2020/12/31 05:09:17;;;;;;;9.55;7.10;;;3.40;99.90;;;2.53;100.00;100135.59;6254199;23;20040;-92
2020/12/31 05:11:51;;;;;;;11.95;8.27;;;3.00;99.90;;;2.47;100.00;100133.59;6251709;23;20004;-90
2020/12/31 05:14:35;;;;;;;11.32;8.00;;;3.50;99.90;;;2.52;100.00;100134.75;6224217;23;20040;-90
2020/12/31 05:17:16;;;;;;;12.37;7.67;;;3.00;99.90;;;2.53;100.00;100131.06;6209119;22;20012;-90
2020/12/31 05:19:43;;;;;;;13.13;7.82;;;3.00;99.90;;;2.51;100.00;100133.06;6234771;23;20009;-89
2020/12/31 05:22:16;;;;;;;9.95;7.65;;;3.30;99.90;;;2.50;100.00;100131.38;6230502;23;20436;-92
2020/12/31 05:24:48;;;;;;;12.85;8.85;;;2.90;99.90;;;2.47;100.00;100126.38;6234901;23;20401;-91
2020/12/31 05:27:24;;;;;;;11.45;8.75;;;2.90;99.90;;;2.41;100.00;100127.03;6263652;23;20000;-91
2020/12/31 05:30:13;;;;;;;9.85;8.15;;;3.10;99.90;;;2.46;100.00;100130.06;6237743;23;20004;-91
2020/12/31 05:32:40;;;;;;;13.05;8.93;;;2.80;99.90;;;2.43;100.00;100135.75;6261576;22;20503;-91
2020/12/31 05:35:16;;;;;;;12.80;8.60;;;2.80;99.90;;;2.43;100.00;100125.00;6216199;23;20400;-91
2020/12/31 05:37:43;;;;;;;8.95;7.10;;;3.20;99.90;;;2.38;100.00;100137.25;6243528;23;20004;-91
2020/12/31 05:40:11;;;;;;;10.50;8.45;;;2.80;99.90;;;2.19;100.00;100138.38;6245034;23;19984;-92
2020/12/31 05:42:39;;;;;;;11.32;8.02;;;3.00;99.90;;;2.22;100.00;100148.81;6245495;23;20019;-91
2020/12/31 05:45:17;;;;;;;11.85;8.75;;;3.20;99.90;;;2.54;100.00;100148.03;6246667;23;20016;-90
2020/12/31 05:47:53;;;;;;;11.32;7.97;;;3.20;99.90;;;2.48;100.00;100146.81;6244207;23;20017;-92
2020/12/31 05:50:23;;;;;;;10.90;8.63;;;2.80;99.90;;;2.60;100.00;100154.59;6242353;23;20022;-89
2020/12/31 05:52:50;;;;;;;13.93;8.77;;;2.80;99.90;;;2.70;100.00;100163.34;6267290;23;20008;-92
2020/12/31 05:55:22;;;;;;;12.13;8.43;;;2.90;99.90;;;2.59;100.00;100158.28;6220739;23;20011;-91
2020/12/31 05:57:56;;;;;;;12.68;8.77;;;3.10;99.90;;;2.55;100.00;100160.47;6235230;23;20075;-90
2020/12/31 06:00:30;;;;;;;9.38;7.60;;;2.90;99.90;;;2.51;100.00;100169.84;6233815;22;20018;-92
2020/12/31 06:03:02;;;;;;;10.75;8.75;;;2.90;99.90;;;2.77;100.00;100164.34;6233112;23;20035;-91
2020/12/31 06:05:30;;;;;;;13.30;7.63;;;3.00;99.90;;;2.85;100.00;100162.50;6231742;23;20019;-90
2020/12/31 06:07:58;;;;;;;10.95;7.93;;;3.10;99.90;;;2.83;100.00;100166.34;6230964;23;20023;-91
2020/12/31 06:10:30;;;;;;;10.05;7.70;;;3.60;99.90;;;3.02;100.00;100163.34;6231190;23;20023;-92
2020/12/31 06:13:03;;;;;;;9.02;6.90;;;3.20;99.90;;;3.14;100.00;100156.63;6229910;23;20038;-92
2020/12/31 06:15:37;;;;;;;12.88;8.43;;;3.70;99.90;;;3.15;100.00;100169.06;6230833;23;20107;-92
2020/12/31 06:18:06;;;;;;;11.98;8.40;;;3.30;99.90;;;3.11;100.00;100173.06;6234272;23;20000;-92
2020/12/31 06:20:36;;;;;;;10.85;8.32;;;3.40;99.90;;;3.12;100.00;100171.22;6206874;23;20039;-92
2020/12/31 06:23:15;;;;;;;10.00;8.00;;;3.40;99.90;;;3.24;100.00;100170.72;6231374;23;20367;-91
2020/12/31 06:25:49;;;;;;;10.40;7.38;;;3.50;99.90;;;3.11;100.00;100173.06;6231225;23;20487;-91
2020/12/31 06:28:21;;;;;;;10.55;8.18;;;3.50;99.90;;;3.39;100.00;100170.00;6256597;23;20083;-91
2020/12/31 06:30:50;;;;;;;13.32;7.88;;;3.50;99.90;;;3.54;100.00;100171.00;6231307;23;20000;-91
2020/12/31 06:33:46;;;;;;;10.18;7.72;;;3.60;99.90;;;3.58;100.00;100165.09;6233000;23;20012;-91
2020/12/31 06:36:13;;;;;;;10.95;8.32;;;3.70;99.90;;;3.55;100.00;100169.97;6234624;23;20032;-92
2020/12/31 06:38:47;;;;;;;10.32;7.95;;;4.20;99.90;;;3.55;100.00;100164.59;6233346;23;20063;-92
2020/12/31 06:41:32;;;;;;;11.13;7.38;;;4.20;99.90;;;3.60;100.00;100162.25;6232743;23;20001;-93
2020/12/31 06:44:17;;;;;;;11.18;7.55;;;4.00;99.90;;;3.69;100.00;100163.91;6256621;23;20090;-92
2020/12/31 06:46:44;;;;;;;;;;;4.00;99.90;;;3.81;100.00;100170.59;6234802;23;20004;-91
2020/12/31 06:49:12;;;;;;;10.48;7.35;;;4.50;99.90;;;3.69;100.00;100171.13;6232668;23;19903;-91
2020/12/31 06:51:38;;;;;;;12.55;8.00;;;4.40;99.90;;;3.66;100.00;100169.63;6206627;23;20519;-90
2020/12/31 06:54:05;;;;;;;11.93;7.60;;;4.10;99.90;;;3.57;100.00;100168.81;6205822;23;20019;-92
2020/12/31 06:56:48;;;;;;;9.38;7.80;;;3.90;99.90;;;3.60;100.00;100167.63;6204349;23;20067;-92
2020/12/31 06:59:38;;;;;;;9.82;7.03;;;3.80;99.90;;;3.49;100.00;100176.91;6204962;23;20059;-92
2020/12/31 07:02:22;;;;;;;11.73;7.50;;;3.80;99.90;;;3.25;100.00;100164.34;6206040;23;20008;-91
2020/12/31 07:04:48;;;;;;;10.45;7.32;;;3.90;99.90;;;3.19;100.00;100161.47;6206728;23;20008;-92
2020/12/31 07:07:30;;;;;;;13.65;7.25;;;3.70;99.90;;;3.12;100.00;100174.75;6206869;23;20015;-91
2020/12/31 07:10:01;;;;;;;11.35;8.63;;;3.50;99.90;;;3.24;100.00;100170.72;6207887;23;20019;-91
2020/12/31 07:12:45;;;;;;;12.85;8.55;;;3.80;99.90;;;3.08;100.00;100168.03;6202040;23;20090;-89
2020/12/31 07:15:18;;;;;;;16.65;8.65;;;3.30;99.90;;;2.82;100.00;100168.19;6204045;23;20001;-89
2020/12/31 07:17:48;;;;;;;13.45;8.25;;;3.20;99.90;;;2.83;100.00;100172.56;6202139;23;20019;-90
2020/12/31 07:20:18;;;;;;;11.63;8.00;;;3.90;99.90;;;2.63;100.00;100173.03;6177186;23;20004;-89
2020/12/31 07:23:40;;;;;;;12.00;8.48;;;3.40;99.90;;;2.46;100.00;100175.72;6206761;23;20015;-89
2020/12/31 07:26:07;;;;;;;13.65;8.75;;;2.90;99.90;;;2.42;100.00;100181.56;6246066;22;20000;-88
2020/12/31 07:28:35;;;;;;;15.15;8.65;;;2.70;99.90;;;2.22;100.00;100181.03;6224423;22;19996;-90
2020/12/31 07:31:01;;;;;;;12.63;9.13;;;2.60;99.90;;;1.97;100.00;100188.13;6248921;22;20081;-88
2020/12/31 07:33:35;;;;;;;15.73;9.48;;;2.60;99.90;;;2.07;100.00;100186.16;6223018;22;20006;-90
2020/12/31 07:36:14;;;;;;;11.18;8.10;;;2.90;99.90;;;2.05;100.00;100187.31;6205706;23;20084;-89
2020/12/31 07:38:41;;;;;;;12.43;9.00;;;3.30;99.90;;;2.04;100.00;100188.31;6203920;23;20008;-89
2020/12/31 07:41:11;;;;;;;15.57;8.73;;;2.30;99.90;;;2.19;100.00;100197.44;6202603;23;20075;-90
2020/12/31 07:43:38;;;;;;;22.15;9.35;;;2.20;99.90;;;2.15;100.00;100190.72;6178264;23;20004;-88
2020/12/31 07:46:04;;;;;;;12.85;9.07;;;2.10;99.90;;;1.98;100.00;100197.88;6203348;23;20083;-89
2020/12/31 07:48:31;;;;;;;14.45;9.75;;;2.30;99.90;;;2.10;100.00;100198.44;6202759;23;20004;-91
2020/12/31 07:51:07;;;;;;;16.30;10.10;;;2.10;99.90;;;2.06;100.00;100203.28;6202658;22;20003;-88
2020/12/31 07:53:35;;;;;;;14.13;9.43;;;2.10;99.90;;;1.87;100.00;100208.06;6232355;23;20008;-88
2020/12/31 07:56:01;;;;;;;19.63;10.38;;;2.20;99.90;;;1.96;100.00;100197.19;6242901;23;20008;-88
2020/12/31 07:58:32;;;;;;;22.13;10.65;;;2.20;99.90;;;1.91;100.00;100193.31;6228640;23;20008;-90
2020/12/31 08:01:05;;;;;;;15.68;9.63;;;2.10;99.90;;;2.00;100.00;100208.44;6227898;23;20008;-89
2020/12/31 08:03:43;;;;;;;16.67;9.57;;;2.10;99.90;;;2.00;100.00;100213.81;6251848;23;20015;-89
2020/12/31 08:06:11;;;;;;;20.85;10.80;;;2.00;99.90;;;1.90;100.00;100207.75;6227569;23;20048;-89
2020/12/31 08:08:41;;;;;;;15.20;10.80;;;2.00;99.90;;;1.99;100.00;100209.44;6229620;23;20035;-89
2020/12/31 08:11:10;;;;;;;21.55;11.55;;;2.20;99.90;;;1.95;100.00;100206.25;6226564;23;20016;-89
2020/12/31 08:13:37;;;;;;;18.20;11.20;;;1.80;99.90;;;1.96;100.00;100201.72;6226899;23;20011;-88
2020/12/31 08:16:04;;;;;;;16.33;10.65;;;2.00;99.90;;;1.83;100.00;100207.53;6228228;23;20004;-88
2020/12/31 08:18:51;;;;;;;21.05;12.63;;;1.80;99.90;;;1.76;100.00;100206.50;6228863;23;20004;-90
2020/12/31 08:25:18;;;;;;;18.23;11.73;;;1.90;99.90;;;1.68;100.00;100199.25;6255476;23;20018;-88
2020/12/31 08:27:45;;;;;;;17.88;10.90;;;1.90;99.90;;;1.57;100.00;100206.72;6233977;23;20000;-89
2020/12/31 08:30:14;;;;;;;17.95;10.10;;;1.90;99.90;;;1.54;100.00;100207.88;6236402;23;20019;-88
2020/12/31 08:32:54;;;;;;;17.13;11.70;;;2.30;99.90;;;1.58;100.00;100217.25;6230784;23;20017;-89
2020/12/31 08:35:33;;;;;;;20.17;11.80;;;2.40;99.90;;;1.58;100.00;100214.59;6205852;23;20009;-88
2020/12/31 08:38:08;;;;;;;23.52;11.68;;;2.10;99.90;;;1.62;100.00;100212.44;6258588;23;20012;-89
2020/12/31 08:40:46;;;;;;;24.00;12.38;;;2.30;99.90;;;1.68;100.00;100215.34;6254551;23;20012;-89
2020/12/31 08:43:35;;;;;;;20.02;10.93;;;2.00;99.90;;;1.72;100.00;100216.69;6259170;23;19992;-90
2020/12/31 08:46:01;;;;;;;17.80;11.43;;;2.00;99.90;;;1.77;100.00;100214.38;6230365;23;20028;-91
2020/12/31 08:48:36;;;;;;;20.27;11.93;;;2.00;99.90;;;1.98;100.00;100218.50;6207305;23;20011;-90
2020/12/31 08:51:08;;;;;;;18.27;12.40;;;2.00;99.90;;;2.16;100.00;100213.88;6254620;23;20012;-89
2020/12/31 08:53:58;;;;;;;22.48;12.90;;;2.50;99.90;;;2.32;100.00;100222.00;6232146;23;20064;-91
2020/12/31 08:56:30;;;;;;;19.38;13.00;;;2.00;99.90;;;2.68;100.00;100216.38;6258052;23;20011;-90
2020/12/31 08:59:30;;;;;;;24.23;14.30;;;2.30;99.90;;;3.55;100.00;100218.41;6232245;23;20007;-90
2020/12/31 09:02:01;;;;;;;20.42;14.13;;;2.70;99.90;;;4.51;100.00;100220.97;6256303;23;20011;-89
2020/12/31 09:04:27;;;;;;;22.08;14.15;;;4.60;99.90;;;5.42;100.00;100216.38;6230028;23;20031;-88
2020/12/31 09:06:57;;;;;;;16.70;12.27;;;4.50;99.90;;;6.29;94.58;100218.53;6230599;23;20008;-88
2020/12/31 09:09:29;;;;;;;16.67;11.73;;;5.20;99.90;;;7.36;92.16;100212.19;6229954;23;20011;-89
2020/12/31 09:12:04;;;;;;;18.52;10.13;;;5.70;99.90;;;8.13;87.12;100220.25;6230196;23;20012;-89
2020/12/31 09:14:33;;;;;;;13.93;10.57;;;6.50;99.90;;;8.89;86.95;100217.50;6231304;23;20091;-89
2020/12/31 09:17:18;;;;;;;13.50;9.98;;;7.20;99.90;;;9.47;80.31;100224.06;6228444;23;20023;-90
2020/12/31 09:19:58;;;;;;;16.38;9.85;;;7.80;99.90;;;10.06;77.92;100223.16;6231697;23;20004;-91
2020/12/31 09:22:25;;;;;;;13.13;9.20;;;8.40;99.90;;;10.44;77.76;100226.84;6205700;23;20009;-90
2020/12/31 09:24:53;;;;;;;12.75;9.95;;;8.90;99.90;;;10.68;78.93;100228.00;6207985;23;20004;-89
2020/12/31 09:27:51;;;;;;;11.27;8.82;;;9.20;99.90;;;10.92;76.01;100223.72;6232835;23;20072;-90
2020/12/31 09:30:20;;;;;;;13.20;9.60;;;9.50;99.90;;;11.17;72.47;100235.47;6233013;23;20008;-87
2020/12/31 09:32:53;;;;;;;12.48;8.27;;;9.80;99.90;;;11.31;72.58;100232.66;6230459;23;20035;-89
2020/12/31 09:35:23;;;;;;;11.13;7.20;;;10.00;99.90;;;11.53;73.14;100234.81;6230320;23;20008;-88
2020/12/31 09:37:57;;;;;;;8.55;6.78;;;10.10;99.90;;;11.66;72.45;100236.59;6231828;23;20452;-89
2020/12/31 09:40:26;;;;;;;8.32;6.88;;;10.30;99.90;;;12.10;66.51;100237.47;6230863;23;20008;-89
2020/12/31 09:42:53;;;;;;;8.93;6.75;;;10.50;99.90;;;12.20;63.67;100238.63;6231503;23;20019;-89
2020/12/31 09:45:29;;;;;;;7.70;6.38;;;10.80;99.90;;;11.85;61.45;100235.63;6231912;23;20012;-90
2020/12/31 09:48:00;;;;;;;9.63;6.70;;;10.60;99.90;;;11.70;64.39;100235.09;6236162;23;20035;-90
2020/12/31 09:50:34;;;;;;;9.00;6.28;;;10.60;99.90;;;11.85;61.00;100232.88;6233465;23;20012;-90
2020/12/31 09:53:01;;;;;;;6.55;5.03;;;10.70;99.90;;;12.31;61.63;100239.78;6234596;23;20004;-92
2020/12/31 09:58:11;;;;;;;6.53;5.55;;;11.00;99.90;;;12.18;61.84;100248.97;6247899;22;20029;-92
2020/12/31 10:00:40;;;;;;;6.97;5.50;;;11.20;99.90;;;12.33;59.16;100249.41;6182312;23;20434;-93
2020/12/31 10:03:13;;;;;;;6.85;5.00;;;11.20;99.90;;;11.98;60.96;100251.03;6183391;23;20012;-90
2020/12/31 10:05:45;;;;;;;7.35;5.05;;;11.20;99.90;;;11.41;63.04;100244.75;6210085;23;20325;-91
2020/12/31 10:08:17;;;;;;;;;;;11.00;99.90;;;10.95;66.73;100255.94;6211198;23;20007;-92
2020/12/31 10:11:08;;;;;;;6.22;5.57;;;10.80;99.90;;;10.70;67.21;100257.75;6209712;23;19899;-90
2020/12/31 10:23:59;;;;;;;6.70;5.78;;;9.10;99.90;;;8.22;76.08;100261.63;6254403;23;20031;-91
2020/12/31 10:26:33;;;;;;;8.25;6.65;;;8.60;99.90;;;7.84;76.78;100258.44;6263402;23;20019;-92
2020/12/31 10:29:08;;;;;;;8.40;5.68;;;8.20;99.90;;;7.48;79.36;100262.09;6270510;23;20015;-93
2020/12/31 10:31:47;;;;;;;8.10;5.57;;;7.90;99.90;;;7.31;80.47;100260.69;6218888;23;20031;-90
2020/12/31 10:34:39;;;;;;;11.95;7.80;;;7.50;99.90;;;6.97;82.07;100260.53;6235986;23;20008;-92
2020/12/31 10:37:05;;;;;;;7.68;6.40;;;7.20;99.90;;;6.90;83.76;100266.69;6263921;22;20047;-92
2020/12/31 10:39:34;;;;;;;11.10;7.78;;;7.00;99.90;;;6.73;84.65;100264.44;6268155;22;20011;-90
2020/12/31 10:42:00;;;;;;;11.00;8.38;;;6.90;99.90;;;6.71;86.28;100272.72;6204813;23;20008;-92
2020/12/31 10:44:27;;;;;;;14.05;8.27;;;6.90;99.90;;;6.69;86.77;100269.38;6237575;23;20015;-92
2020/12/31 10:46:55;;;;;;;13.65;9.43;;;6.90;99.90;;;6.48;87.49;100261.19;6291520;22;20019;-92